Continental Divide, New Mexico
Current Conditions -  °F | °C
As of 4:53 PM on Friday 24 Oct 2014 (Local Time) from KGUP Reporting Station
Clear Clear  
Wind Chill: 75°   Ceiling: Unl
Heat Index: 75°   Visibility: 10mi
Dew Point: 29°   Wind: 6mph
Humidity: 18%   Direction: 210°SSW
Pressure: 30.3"   Gusts: NA
Location:  35.42°N, 108.31°W
Report Text: KGUP 242253Z AUTO 21005KT 10SM CLR 24/M02 A3030 RMK AO2 SLP162 T02391017
Loading
Personal Weather Stations






























Interactive Weather Map
Tropical Storm Tracking
New forecast layout! Learn more

10-Day Weather Forecast

Advertisements
Track Severe Weather on mobile